createdAt,value
2019-05-10T00:03:01.441Z,99.90
2019-05-10T00:05:48.493Z,99.90
2019-05-10T00:08:34.933Z,99.90
2019-05-10T00:13:35.885Z,99.90
2019-05-10T00:16:04.539Z,99.90
2019-05-10T00:18:32.993Z,99.90
2019-05-10T00:28:26.160Z,99.90
2019-05-10T00:30:54.589Z,99.90
2019-05-10T00:35:51.155Z,99.90
2019-05-10T00:40:47.716Z,99.90
2019-05-10T00:43:16.171Z,99.90
2019-05-10T00:45:44.611Z,99.90
2019-05-10T00:48:13.074Z,99.90
2019-05-10T00:50:41.543Z,99.90
2019-05-10T00:58:06.249Z,99.90
2019-05-10T01:00:34.679Z,99.90
2019-05-10T01:03:03.165Z,99.90
2019-05-10T01:05:31.709Z,99.90
2019-05-10T01:08:00.232Z,99.90
2019-05-10T01:10:28.663Z,99.90
2019-05-10T01:12:57.125Z,99.90
2019-05-10T01:15:25.561Z,99.90
2019-05-10T01:17:54.034Z,99.90
2019-05-10T01:22:50.627Z,99.90
2019-05-10T01:25:34.119Z,99.90
2019-05-10T01:27:49.349Z,99.90
2019-05-10T01:30:18.236Z,99.90
2019-05-10T01:32:46.743Z,99.90
2019-05-10T01:35:15.219Z,99.90
2019-05-10T01:37:43.664Z,99.90
2019-05-10T01:40:12.199Z,99.90
2019-05-10T01:42:40.648Z,99.90
2019-05-10T01:45:09.353Z,99.90
2019-05-10T01:47:37.801Z,99.90
2019-05-10T01:50:07.423Z,99.90
2019-05-10T01:52:35.880Z,99.90
2019-05-10T01:55:06.883Z,99.90
2019-05-10T01:57:35.370Z,99.90
2019-05-10T02:00:06.834Z,99.90
2019-05-10T02:02:35.372Z,99.90
2019-05-10T02:05:04.360Z,99.90
2019-05-10T02:07:32.885Z,99.90
2019-05-10T02:10:01.341Z,99.90
2019-05-10T02:12:29.898Z,99.90
2019-05-10T02:14:58.338Z,99.90
2019-05-10T02:17:26.870Z,99.90
2019-05-10T02:19:55.302Z,99.90
2019-05-10T02:22:23.832Z,99.90
2019-05-10T02:24:52.380Z,99.90
2019-05-10T02:27:20.826Z,99.90
2019-05-10T02:29:49.326Z,99.90
2019-05-10T02:32:17.823Z,99.90
2019-05-10T02:34:46.289Z,99.90
2019-05-10T02:39:42.866Z,99.90
2019-05-10T02:42:11.378Z,99.90
2019-05-10T02:44:39.849Z,99.90
2019-05-10T02:47:08.440Z,99.90
2019-05-10T02:52:05.036Z,99.90
2019-05-10T02:54:33.777Z,99.90
2019-05-10T02:57:03.411Z,99.90
2019-05-10T02:59:34.665Z,99.90
2019-05-10T03:02:06.074Z,99.90
2019-05-10T03:04:36.798Z,99.90
2019-05-10T03:07:07.057Z,99.90
2019-05-10T03:09:35.649Z,99.90
2019-05-10T03:12:13.238Z,99.90
2019-05-10T03:14:41.690Z,99.90
2019-05-10T03:17:12.234Z,99.90
2019-05-10T03:22:10.044Z,99.90
2019-05-10T03:27:06.686Z,99.90
2019-05-10T03:29:35.208Z,99.90
2019-05-10T03:32:03.812Z,99.90
2019-05-10T03:34:32.438Z,99.90
2019-05-10T03:37:01.204Z,99.90
2019-05-10T03:39:29.937Z,99.90
2019-05-10T03:41:58.517Z,99.90
2019-05-10T03:44:27.061Z,99.90
2019-05-10T03:46:55.490Z,99.90
2019-05-10T03:49:23.957Z,99.90
2019-05-10T03:51:52.419Z,99.90
2019-05-10T03:54:20.967Z,99.90
2019-05-10T03:56:49.408Z,99.90
2019-05-10T03:59:17.941Z,99.90
2019-05-10T04:01:46.387Z,99.90
2019-05-10T04:04:14.865Z,99.90
2019-05-10T04:06:43.399Z,99.90
2019-05-10T04:09:11.831Z,99.90
2019-05-10T04:11:40.289Z,99.90
2019-05-10T04:14:08.728Z,99.90
2019-05-10T04:16:37.263Z,99.90
2019-05-10T04:19:05.724Z,99.90
2019-05-10T04:21:34.210Z,99.90
2019-05-10T04:24:02.706Z,99.90
2019-05-10T04:26:31.197Z,99.90
2019-05-10T04:28:59.724Z,99.90
2019-05-10T04:31:28.290Z,99.90
2019-05-10T04:33:56.801Z,99.90
2019-05-10T04:36:25.328Z,99.90
2019-05-10T04:41:21.897Z,99.90
2019-05-10T04:43:50.374Z,99.90
2019-05-10T04:46:18.934Z,99.90
2019-05-10T04:48:47.433Z,99.90
2019-05-10T04:56:12.307Z,99.90
2019-05-10T04:58:40.829Z,99.90
2019-05-10T05:03:37.402Z,99.90
2019-05-10T05:06:05.880Z,99.90
2019-05-10T05:08:34.306Z,99.90
2019-05-10T05:11:02.808Z,99.90
2019-05-10T05:13:31.257Z,99.90
2019-05-10T05:15:59.767Z,99.90
2019-05-10T05:18:28.236Z,99.90
2019-05-10T05:20:56.990Z,99.90
2019-05-10T05:23:25.511Z,99.90
2019-05-10T05:25:54.097Z,99.90
2019-05-10T05:28:23.299Z,99.90
2019-05-10T05:30:52.819Z,99.90
2019-05-10T05:33:21.258Z,99.90
2019-05-10T05:35:49.740Z,99.90
2019-05-10T05:38:18.191Z,99.90
2019-05-10T05:40:46.656Z,99.90
2019-05-10T05:43:15.100Z,99.90
2019-05-10T05:45:43.568Z,99.90
2019-05-10T05:48:16.164Z,99.90
2019-05-10T05:50:42.215Z,99.90
2019-05-10T05:53:10.704Z,99.90
2019-05-10T05:55:39.225Z,99.90
2019-05-10T05:58:25.259Z,99.90
2019-05-10T06:00:44.704Z,99.90
2019-05-10T06:03:08.053Z,99.90
2019-05-10T06:05:37.353Z,99.90
2019-05-10T06:08:21.303Z,99.90
2019-05-10T06:10:36.273Z,99.90
2019-05-10T06:13:04.780Z,99.90
2019-05-10T06:15:33.246Z,99.90
2019-05-10T06:18:03.434Z,99.90
2019-05-10T06:20:31.925Z,99.90
2019-05-10T06:23:07.044Z,99.90
2019-05-10T06:25:39.713Z,99.90
2019-05-10T06:28:00.729Z,99.90
2019-05-10T06:30:29.302Z,99.90
2019-05-10T06:33:03.523Z,99.90
2019-05-10T06:35:27.925Z,99.90
2019-05-10T06:37:56.411Z,99.90
2019-05-10T06:40:35.639Z,99.90
2019-05-10T06:42:55.044Z,99.90
2019-05-10T06:45:23.492Z,99.90
2019-05-10T06:47:53.363Z,99.90
2019-05-10T06:50:29.115Z,99.90
2019-05-10T06:52:52.476Z,99.90
2019-05-10T06:55:21.096Z,99.90
2019-05-10T06:57:57.137Z,99.90
2019-05-10T07:00:20.069Z,99.90
2019-05-10T07:02:48.540Z,99.90
2019-05-10T07:05:16.983Z,99.90
2019-05-10T07:10:19.022Z,99.90
2019-05-10T07:15:14.534Z,99.90
2019-05-10T07:17:46.965Z,99.90
2019-05-10T07:20:13.739Z,99.90
2019-05-10T07:22:42.288Z,99.90
2019-05-10T07:25:11.045Z,99.90
2019-05-10T07:27:39.547Z,99.90
2019-05-10T07:30:08.584Z,99.90
2019-05-10T07:32:37.145Z,99.90
2019-05-10T07:35:06.739Z,99.90
2019-05-10T07:37:35.547Z,99.90
2019-05-10T07:40:07.938Z,99.90
2019-05-10T07:42:39.768Z,99.90
2019-05-10T07:45:10.207Z,99.90
2019-05-10T07:47:38.762Z,99.90
2019-05-10T07:50:09.642Z,99.90
2019-05-10T07:52:43.534Z,99.90
2019-05-10T07:55:10.242Z,99.90
2019-05-10T07:57:38.117Z,99.90
2019-05-10T08:00:07.397Z,99.90
2019-05-10T08:02:35.993Z,99.90
2019-05-10T08:05:10.928Z,99.90
2019-05-10T08:07:38.503Z,99.90
2019-05-10T08:10:08.718Z,99.90
2019-05-10T08:12:41.533Z,99.90
2019-05-10T08:15:08.658Z,99.90
2019-05-10T08:17:41.011Z,99.90
2019-05-10T08:20:14.775Z,99.90
2019-05-10T08:22:41.572Z,99.90
2019-05-10T08:25:09.335Z,99.90
2019-05-10T08:27:43.943Z,99.90
2019-05-10T08:30:24.318Z,99.90
2019-05-10T08:32:39.279Z,99.90
2019-05-10T08:37:38.153Z,99.90
2019-05-10T08:40:07.046Z,99.90
2019-05-10T08:42:44.211Z,99.90
2019-05-10T08:45:08.860Z,99.90
2019-05-10T08:50:22.747Z,99.90
2019-05-10T08:52:36.120Z,99.90
2019-05-10T08:55:07.288Z,99.90
2019-05-10T09:00:40.172Z,99.90
2019-05-10T09:02:52.448Z,99.90
2019-05-10T09:05:28.595Z,99.90
2019-05-10T09:07:52.148Z,99.90
2019-05-10T09:10:22.290Z,99.90
2019-05-10T09:12:57.632Z,99.90
2019-05-10T09:15:22.273Z,99.90
2019-05-10T09:17:52.752Z,99.90
2019-05-10T09:20:26.214Z,99.90
2019-05-10T09:22:52.819Z,99.90
2019-05-10T09:25:29.277Z,99.90
2019-05-10T09:27:53.097Z,99.90
2019-05-10T09:30:32.405Z,99.90
2019-05-10T09:33:08.334Z,99.90
2019-05-10T09:35:32.968Z,99.90
2019-05-10T09:38:02.030Z,99.90
2019-05-10T09:40:32.765Z,99.90
2019-05-10T09:43:05.166Z,99.90
2019-05-10T09:45:32.448Z,99.90
2019-05-10T09:50:41.445Z,99.90
2019-05-10T09:53:01.553Z,99.90
2019-05-10T09:55:30.137Z,99.90
2019-05-10T09:57:58.608Z,99.90
2019-05-10T10:00:37.686Z,99.90
2019-05-10T10:03:07.929Z,99.90
2019-05-10T10:05:39.723Z,99.90
2019-05-10T10:08:09.306Z,99.90
2019-05-10T10:10:37.151Z,99.90
2019-05-10T10:13:11.413Z,99.90
2019-05-10T10:15:37.299Z,99.90
2019-05-10T10:18:06.037Z,99.90
2019-05-10T10:20:42.820Z,99.90
2019-05-10T10:23:07.312Z,99.90
2019-05-10T10:25:40.530Z,99.90
2019-05-10T10:28:08.303Z,99.90
2019-05-10T10:30:37.393Z,99.90
2019-05-10T10:33:11.757Z,99.90
2019-05-10T10:35:37.879Z,99.90
2019-05-10T10:38:07.985Z,99.90
2019-05-10T10:40:44.190Z,99.90
2019-05-10T10:43:07.683Z,99.90
2019-05-10T10:45:37.669Z,99.90
2019-05-10T10:48:08.594Z,99.90
2019-05-10T10:50:36.676Z,99.90
2019-05-10T10:53:07.802Z,99.90
2019-05-10T10:55:39.448Z,99.90
2019-05-10T10:58:07.355Z,99.90
2019-05-10T11:00:38.800Z,99.90
2019-05-10T11:03:06.821Z,99.90
2019-05-10T11:05:38.364Z,99.90
2019-05-10T11:08:06.875Z,99.90
2019-05-10T11:10:43.031Z,99.90
2019-05-10T11:13:18.810Z,99.90
2019-05-10T11:15:42.215Z,98.40
2019-05-10T11:18:10.745Z,99.90
2019-05-10T11:20:41.951Z,99.90
2019-05-10T11:23:10.736Z,99.90
2019-05-10T11:25:42.691Z,99.90
2019-05-10T11:28:11.912Z,99.90
2019-05-10T11:30:39.860Z,99.90
2019-05-10T11:33:23.910Z,99.90
2019-05-10T11:38:12.867Z,99.90
2019-05-10T11:40:37.252Z,99.90
2019-05-10T11:45:35.198Z,99.90
2019-05-10T11:48:04.406Z,99.90
2019-05-10T11:50:35.483Z,99.90
2019-05-10T11:53:06.835Z,99.90
2019-05-10T11:55:35.740Z,99.90
2019-05-10T12:00:34.925Z,99.90
2019-05-10T12:03:11.302Z,99.90
2019-05-10T12:05:33.616Z,99.90
2019-05-10T12:08:02.337Z,99.90
2019-05-10T12:10:32.019Z,99.90
2019-05-10T12:13:11.294Z,99.90
2019-05-10T12:15:31.787Z,99.90
2019-05-10T12:18:04.523Z,99.90
2019-05-10T12:23:03.379Z,99.90
2019-05-10T12:26:00.229Z,99.90
2019-05-10T12:26:05.804Z,99.90
2019-05-10T12:26:27.896Z,99.90
2019-05-10T12:28:01.394Z,99.90
2019-05-10T12:30:34.865Z,99.90
2019-05-10T12:33:08.803Z,99.90
2019-05-10T12:35:35.563Z,99.90
2019-05-10T12:38:01.626Z,99.90
2019-05-10T12:40:31.457Z,99.90
2019-05-10T12:43:00.664Z,99.90
2019-05-10T12:50:29.222Z,99.90
2019-05-10T12:53:13.668Z,99.90
2019-05-10T12:55:27.951Z,99.90
2019-05-10T12:57:56.504Z,99.90
2019-05-10T13:00:25.093Z,99.90
2019-05-10T13:02:53.704Z,99.90
2019-05-10T13:07:52.151Z,99.90
2019-05-10T13:10:20.788Z,99.90
2019-05-10T13:12:49.343Z,99.90
2019-05-10T13:17:50.576Z,99.90
2019-05-10T13:20:16.594Z,99.90
2019-05-10T13:22:45.052Z,99.90
2019-05-10T13:25:13.751Z,99.90
2019-05-10T13:27:42.261Z,99.90
2019-05-10T13:32:39.287Z,99.90
2019-05-10T13:35:07.940Z,99.90
2019-05-10T13:37:36.443Z,99.90
2019-05-10T13:40:08.058Z,99.90
2019-05-10T13:42:43.176Z,99.90
2019-05-10T13:47:35.554Z,99.90
2019-05-10T13:50:05.796Z,99.90
2019-05-10T13:55:06.317Z,99.90
2019-05-10T14:00:11.373Z,99.90
2019-05-10T14:05:11.962Z,99.90
2019-05-10T14:10:07.381Z,99.90
2019-05-10T14:12:35.875Z,99.90
2019-05-10T14:15:12.949Z,99.90
2019-05-10T14:17:38.891Z,99.90
2019-05-10T14:20:19.411Z,99.90
2019-05-10T14:22:39.080Z,99.90
2019-05-10T14:25:08.429Z,99.90
2019-05-10T14:27:38.565Z,99.90
2019-05-10T14:30:13.746Z,99.90
2019-05-10T14:32:38.751Z,99.90
2019-05-10T14:35:08.214Z,99.90
2019-05-10T14:37:36.773Z,99.90
2019-05-10T14:42:35.149Z,99.90
2019-05-10T14:45:03.888Z,99.90
2019-05-10T14:47:32.405Z,99.90
2019-05-10T14:50:00.886Z,99.90
2019-05-10T14:52:29.441Z,99.90
2019-05-10T14:54:57.912Z,99.80
2019-05-10T14:57:26.408Z,99.90
2019-05-10T15:02:25.021Z,99.90
2019-05-10T15:04:53.362Z,99.90
2019-05-10T15:09:54.170Z,99.90
2019-05-10T15:12:22.786Z,99.90
2019-05-10T15:14:50.448Z,95.80
2019-05-10T15:17:20.099Z,94.90
2019-05-10T15:19:57.078Z,96.20
2019-05-10T15:22:23.082Z,95.10
2019-05-10T15:24:49.473Z,97.40
2019-05-10T15:29:47.874Z,97.60
2019-05-10T15:32:16.348Z,96.80
2019-05-10T15:35:03.870Z,95.40
2019-05-10T15:37:17.633Z,95.60
2019-05-10T15:39:45.334Z,96.50
2019-05-10T15:44:41.957Z,94.90
2019-05-10T15:47:14.583Z,95.20
2019-05-10T15:52:17.417Z,95.40
2019-05-10T15:54:44.504Z,95.60
2019-05-10T15:59:37.621Z,95.60
2019-05-10T16:02:06.166Z,95.00
2019-05-10T16:09:31.026Z,96.70
2019-05-10T16:12:01.918Z,98.80
2019-05-10T16:14:33.148Z,97.40
2019-05-10T16:19:28.168Z,97.20
2019-05-10T16:21:58.226Z,97.50
2019-05-10T16:24:28.094Z,95.20
2019-05-10T16:29:27.375Z,94.40
2019-05-10T16:31:55.938Z,95.70
2019-05-10T16:34:26.581Z,94.70
2019-05-10T16:36:54.578Z,97.20
2019-05-10T16:44:20.976Z,94.00
2019-05-10T16:46:49.778Z,96.30
2019-05-10T16:49:18.253Z,97.20
2019-05-10T16:51:47.674Z,94.60
2019-05-10T16:54:24.607Z,94.50
2019-05-10T16:56:51.752Z,95.60
2019-05-10T16:59:17.404Z,98.10
2019-05-10T17:01:45.921Z,97.60
2019-05-10T17:04:14.387Z,98.00
2019-05-10T17:06:42.902Z,98.20
2019-05-10T17:09:18.303Z,99.40
2019-05-10T17:11:46.541Z,99.30
2019-05-10T17:16:41.757Z,99.60
2019-05-10T17:19:10.202Z,99.90
2019-05-10T17:21:38.749Z,99.90
2019-05-10T17:26:35.487Z,99.90
2019-05-10T17:29:07.130Z,99.90
2019-05-10T17:31:34.288Z,99.90
2019-05-10T17:34:02.850Z,98.70
2019-05-10T17:36:31.411Z,99.90
2019-05-10T17:38:59.914Z,99.20
2019-05-10T17:41:28.425Z,98.60
2019-05-10T17:43:56.968Z,98.90
2019-05-10T17:46:25.488Z,99.90
2019-05-10T17:48:53.977Z,99.90
2019-05-10T17:51:22.423Z,99.30
2019-05-10T17:53:55.226Z,99.90
2019-05-10T17:56:21.223Z,99.90
2019-05-10T17:58:49.819Z,99.90
2019-05-10T18:01:18.369Z,99.90
2019-05-10T18:03:46.829Z,99.90
2019-05-10T18:11:13.445Z,99.90
2019-05-10T18:16:11.299Z,99.90
2019-05-10T18:18:46.243Z,99.90
2019-05-10T18:26:08.060Z,99.90
2019-05-10T18:28:36.522Z,99.90
2019-05-10T18:33:33.114Z,99.90
2019-05-10T18:36:01.728Z,99.90
2019-05-10T18:38:30.943Z,99.90
2019-05-10T18:41:05.354Z,99.90
2019-05-10T18:46:01.168Z,99.90
2019-05-10T18:50:57.032Z,99.90
2019-05-10T18:53:25.493Z,99.90
2019-05-10T18:55:53.978Z,99.90
2019-05-10T18:58:28.813Z,99.90
2019-05-10T19:10:51.633Z,99.90
2019-05-10T19:15:53.084Z,99.90
2019-05-10T19:28:21.023Z,99.90
2019-05-10T19:33:20.172Z,99.90
2019-05-10T19:35:51.414Z,99.90
2019-05-10T19:38:19.887Z,99.90
2019-05-10T19:43:21.779Z,99.90
2019-05-10T19:45:51.066Z,99.90
2019-05-10T19:50:45.434Z,99.90
2019-05-10T19:53:13.915Z,99.90
2019-05-10T19:55:42.411Z,99.90
2019-05-10T19:58:10.899Z,99.90
2019-05-10T20:03:07.449Z,99.90
2019-05-10T20:08:04.117Z,99.90
2019-05-10T20:10:32.569Z,99.90
2019-05-10T20:13:01.127Z,99.90
2019-05-10T20:22:54.407Z,99.90
2019-05-10T20:25:22.881Z,99.90
2019-05-10T20:32:47.788Z,99.90
2019-05-10T20:35:16.372Z,99.90
2019-05-10T20:38:00.148Z,99.90
2019-05-10T20:40:15.679Z,99.90
2019-05-10T20:42:44.158Z,99.90
2019-05-10T20:45:12.871Z,99.90
2019-05-10T20:52:37.766Z,99.90
2019-05-10T20:55:06.943Z,99.90
2019-05-10T20:57:35.413Z,99.90
2019-05-10T21:09:57.838Z,99.90
2019-05-10T21:12:26.314Z,99.90
2019-05-10T21:24:47.682Z,99.90
2019-05-10T21:27:16.133Z,99.90
2019-05-10T21:29:44.612Z,99.90
2019-05-10T21:34:41.912Z,99.90
2019-05-10T21:37:10.467Z,99.90
2019-05-10T21:42:07.156Z,99.90
2019-05-10T21:44:35.678Z,99.90
2019-05-10T21:49:32.410Z,99.90
2019-05-10T21:52:01.012Z,99.90
2019-05-10T21:56:58.495Z,99.90
2019-05-10T21:59:27.082Z,99.90
2019-05-10T22:06:52.291Z,99.90
2019-05-10T22:09:21.155Z,99.90
2019-05-10T22:11:49.707Z,99.90
2019-05-10T22:14:18.300Z,99.90
2019-05-10T22:19:15.151Z,99.90
2019-05-10T22:21:43.738Z,99.90
2019-05-10T22:26:40.565Z,99.90
2019-05-10T22:29:09.131Z,99.90
2019-05-10T22:31:37.712Z,99.90
2019-05-10T22:36:34.674Z,99.90
2019-05-10T22:41:33.418Z,99.90
2019-05-10T22:44:02.395Z,99.90
2019-05-10T22:46:30.945Z,99.90
2019-05-10T22:48:59.557Z,99.90
2019-05-10T22:51:28.108Z,99.90
2019-05-10T22:56:26.586Z,99.90
2019-05-10T22:58:55.187Z,99.90
2019-05-10T23:01:23.755Z,99.90
2019-05-10T23:03:52.274Z,99.90
2019-05-10T23:06:20.874Z,99.90
2019-05-10T23:08:49.409Z,99.90
2019-05-10T23:11:17.916Z,99.90
2019-05-10T23:13:46.513Z,99.90
2019-05-10T23:16:15.061Z,99.90
2019-05-10T23:21:11.894Z,99.90
2019-05-10T23:26:08.763Z,99.90
2019-05-10T23:28:37.355Z,99.90
2019-05-10T23:33:34.178Z,99.90
2019-05-10T23:36:02.735Z,99.90
2019-05-10T23:38:31.255Z,99.90
2019-05-10T23:40:59.880Z,99.90
2019-05-10T23:43:28.466Z,99.90
2019-05-10T23:45:57.024Z,99.90
2019-05-10T23:48:25.610Z,99.90
2019-05-10T23:50:54.190Z,99.90
2019-05-10T23:55:50.999Z,99.90
2019-05-10T23:58:19.654Z,99.90
